Alpine, Arizona
Current Conditions -  °F | °C
As of 1:35 PM on Thursday 27 Nov 2014 (Local Time) from KJTC Reporting Station
Clear Clear  
Wind Chill: 66°   Ceiling: Unl
Heat Index: 66°   Visibility: 10mi
Dew Point:   Wind: 7mph
Humidity: 7%   Direction: 360°N
Pressure: 30.41"   Gusts: NA
Location:  33.85°N, 109.14°W
Report Text: KJTC 272035Z AUTO 36006KT 10SM CLR 19/M18 A3041 RMK AO2
Loading
Personal Weather Stations






























Interactive Weather Map New forecast layout! Learn more

10-Day Weather Forecast

Advertisements
Track Severe Weather on mobile